Time;durP1;ratioP1;P1;durP2;ratioP2;P2;SDS_P1;SDS_P2;PMS_P1;PMS_P2;Temp;Humidity;BMP_temperature;BMP_pressure;BME280_temperature;BME280_humidity;BME280_pressure;Samples;Min_cycle;Max_cycle;Signal;HPM_P1;HPM_P2
2021/12/04 00:02:05;;;;;;;3.33;2.13;;;;;;;;;;5052231;28;20080;-81
2021/12/04 00:04:37;;;;;;;4.30;2.63;;;;;;;;;;5036852;28;20021;-81
2021/12/04 00:07:07;;;;;;;2.90;2.03;;;;;;;;;;5036633;28;20484;-83
2021/12/04 00:09:34;;;;;;;3.25;1.88;;;;;;;;;;5036678;28;20028;-79
2021/12/04 00:12:02;;;;;;;3.97;1.90;;;;;;;;;;5036626;28;20109;-83
2021/12/04 00:14:28;;;;;;;3.03;2.20;;;;;;;;;;5036758;28;20033;-80
2021/12/04 00:16:54;;;;;;;2.38;1.70;;;;;;;;;;5036823;28;20379;-81
2021/12/04 00:19:21;;;;;;;2.72;2.03;;;;;;;;;;5036444;28;20448;-80
2021/12/04 00:21:47;;;;;;;3.35;2.22;;;;;;;;;;5036780;28;20460;-83
2021/12/04 00:24:13;;;;;;;3.53;1.92;;;;;;;;;;5036606;28;20035;-81
2021/12/04 00:26:40;;;;;;;3.60;2.65;;;;;;;;;;5038216;28;20026;-79
2021/12/04 00:29:06;;;;;;;3.28;2.22;;;;;;;;;;5038873;28;20021;-84
2021/12/04 00:31:33;;;;;;;2.30;1.40;;;;;;;;;;5051667;28;20041;-81
2021/12/04 00:33:59;;;;;;;2.50;2.17;;;;;;;;;;5036338;28;20041;-85
2021/12/04 00:49:50;;;;;;;4.20;1.85;;;;;;;;;;5035934;28;20044;-82
2021/12/04 00:52:16;;;;;;;2.97;2.35;;;;;;;;;;5036105;28;20056;-83
2021/12/04 00:54:43;;;;;;;3.30;2.15;;;;;;;;;;5036117;28;20037;-78
2021/12/04 00:57:09;;;;;;;4.43;1.80;;;;;;;;;;5035837;28;20033;-80
2021/12/04 00:59:35;;;;;;;3.42;1.75;;;;;;;;;;5050875;28;20399;-81
2021/12/04 01:02:01;;;;;;;2.35;1.80;;;;;;;;;;5035890;28;20108;-82
2021/12/04 01:04:28;;;;;;;2.85;1.60;;;;;;;;;;5035391;28;20029;-77
2021/12/04 01:06:54;;;;;;;2.72;1.52;;;;;;;;;;5035562;28;20036;-79
2021/12/04 01:09:23;;;;;;;3.88;2.55;;;;;;;;;;5035562;28;20104;-79
2021/12/04 01:11:50;;;;;;;3.22;1.63;;;;;;;;;;5035648;28;20191;-80
2021/12/04 01:14:17;;;;;;;2.63;1.73;;;;;;;;;;5035590;28;20495;-82
2021/12/04 01:16:43;;;;;;;3.20;2.17;;;;;;;;;;5035481;28;20036;-79
2021/12/04 01:19:10;;;;;;;2.80;1.80;;;;;;;;;;5035504;28;20033;-82
2021/12/04 01:21:36;;;;;;;2.65;1.42;;;;;;;;;;5035534;28;20026;-82
2021/12/04 01:24:02;;;;;;;3.08;1.70;;;;;;;;;;5035415;28;20035;-81
2021/12/04 01:26:28;;;;;;;2.40;1.65;;;;;;;;;;5035245;28;20456;-80
2021/12/04 01:28:54;;;;;;;2.30;1.40;;;;;;;;;;5035344;28;20464;-80
2021/12/04 01:31:21;;;;;;;3.08;1.70;;;;;;;;;;5035042;28;20041;-78
2021/12/04 01:33:47;;;;;;;2.50;1.90;;;;;;;;;;5035042;28;20029;-83
2021/12/04 01:36:13;;;;;;;3.25;1.58;;;;;;;;;;5035294;28;20101;-78
2021/12/04 01:38:40;;;;;;;3.75;1.92;;;;;;;;;;5035035;28;20053;-81
2021/12/04 01:41:06;;;;;;;4.35;1.70;;;;;;;;;;5035200;28;20048;-83
2021/12/04 01:43:32;;;;;;;3.35;2.05;;;;;;;;;;5035038;28;20075;-83
2021/12/04 01:45:58;;;;;;;2.67;1.77;;;;;;;;;;5050239;28;20116;-80
2021/12/04 01:48:24;;;;;;;2.58;1.85;;;;;;;;;;5034886;28;20447;-77
2021/12/04 01:50:52;;;;;;;2.65;1.90;;;;;;;;;;5034807;28;20401;-82
2021/12/04 01:53:18;;;;;;;2.55;1.30;;;;;;;;;;5034742;28;20492;-85
2021/12/04 01:55:44;;;;;;;4.95;2.38;;;;;;;;;;5034796;28;20029;-85
2021/12/04 01:58:12;;;;;;;2.90;1.83;;;;;;;;;;5034771;28;20029;-82
2021/12/04 02:00:39;;;;;;;2.53;2.22;;;;;;;;;;5034495;28;20033;-80
2021/12/04 02:03:08;;;;;;;3.30;2.40;;;;;;;;;;5034747;28;20498;-81
2021/12/04 02:05:37;;;;;;;4.95;2.38;;;;;;;;;;5034669;28;20072;-83
2021/12/04 02:08:04;;;;;;;2.47;1.80;;;;;;;;;;5035969;28;20052;-79
2021/12/04 02:10:30;;;;;;;2.53;1.80;;;;;;;;;;5037239;28;20033;-83
2021/12/04 02:12:56;;;;;;;2.90;1.90;;;;;;;;;;5033275;28;20029;-79
2021/12/04 02:15:22;;;;;;;2.70;2.03;;;;;;;;;;5033876;28;20048;-82
2021/12/04 02:17:49;;;;;;;3.05;2.10;;;;;;;;;;5034480;28;20025;-78
2021/12/04 02:20:17;;;;;;;3.83;2.50;;;;;;;;;;5034092;28;20065;-83
2021/12/04 02:22:43;;;;;;;4.30;2.42;;;;;;;;;;5034273;28;20088;-85
2021/12/04 02:25:10;;;;;;;4.25;2.70;;;;;;;;;;5034082;28;20022;-82
2021/12/04 02:27:37;;;;;;;4.35;3.03;;;;;;;;;;5034247;28;20026;-81
2021/12/04 02:30:04;;;;;;;3.58;2.65;;;;;;;;;;5034013;28;20021;-84
2021/12/04 02:32:31;;;;;;;3.28;2.42;;;;;;;;;;5034077;28;20078;-86
2021/12/04 02:34:57;;;;;;;4.88;2.70;;;;;;;;;;5034184;28;20390;-78
2021/12/04 02:37:23;;;;;;;4.07;3.15;;;;;;;;;;5034096;28;20471;-79
2021/12/04 02:39:57;;;;;;;4.85;2.88;;;;;;;;;;5034047;28;20057;-82
2021/12/04 02:42:24;;;;;;;3.85;3.03;;;;;;;;;;5034096;28;20029;-83
2021/12/04 02:44:50;;;;;;;4.20;3.22;;;;;;;;;;5050010;28;20449;-82
2021/12/04 02:47:17;;;;;;;4.30;2.75;;;;;;;;;;5034709;28;20422;-79
2021/12/04 02:49:43;;;;;;;4.10;2.92;;;;;;;;;;5034127;28;20036;-79
2021/12/04 02:52:10;;;;;;;4.55;3.35;;;;;;;;;;5033905;28;20034;-86
2021/12/04 02:54:37;;;;;;;4.40;3.13;;;;;;;;;;5033969;28;20026;-79
2021/12/04 02:57:04;;;;;;;3.90;2.80;;;;;;;;;;5033826;28;20026;-81
2021/12/04 02:59:32;;;;;;;4.75;3.45;;;;;;;;;;5033814;28;20037;-81
2021/12/04 03:01:59;;;;;;;4.43;3.35;;;;;;;;;;5034112;28;20068;-83
2021/12/04 03:04:26;;;;;;;5.03;3.55;;;;;;;;;;5033725;28;20442;-82
2021/12/04 03:06:53;;;;;;;4.07;3.05;;;;;;;;;;5033478;28;20113;-85
2021/12/04 03:09:19;;;;;;;4.32;2.88;;;;;;;;;;5033662;28;20073;-82
2021/12/04 03:11:46;;;;;;;5.07;3.67;;;;;;;;;;5033508;28;20037;-79
2021/12/04 03:14:12;;;;;;;4.63;3.13;;;;;;;;;;5033459;28;20100;-84
2021/12/04 03:16:40;;;;;;;5.85;3.75;;;;;;;;;;5033449;28;20025;-81
2021/12/04 03:19:07;;;;;;;4.65;3.50;;;;;;;;;;5033519;28;20112;-85
2021/12/04 03:21:35;;;;;;;5.18;3.85;;;;;;;;;;5033441;28;20606;-82
2021/12/04 03:24:04;;;;;;;4.95;3.40;;;;;;;;;;5033364;28;20021;-81
2021/12/04 03:26:30;;;;;;;4.25;3.17;;;;;;;;;;5034427;28;20025;-82
2021/12/04 03:29:00;;;;;;;4.45;3.50;;;;;;;;;;5037531;28;20096;-89
2021/12/04 03:40:10;;;;;;;4.38;3.58;;;;;;;;;;5037412;28;20440;-83
2021/12/04 03:42:38;;;;;;;4.90;3.85;;;;;;;;;;5052836;28;20535;-87
2021/12/04 03:45:06;;;;;;;5.13;3.53;;;;;;;;;;5037266;28;20482;-82
2021/12/04 03:47:32;;;;;;;4.95;3.22;;;;;;;;;;5037297;28;20048;-89
2021/12/04 03:49:59;;;;;;;4.35;3.20;;;;;;;;;;5040831;28;20079;-81
2021/12/04 03:52:25;;;;;;;5.18;3.03;;;;;;;;;;5038291;28;20113;-83
2021/12/04 03:54:51;;;;;;;5.50;3.78;;;;;;;;;;5037358;28;20060;-88
2021/12/04 03:57:17;;;;;;;4.82;3.47;;;;;;;;;;5036909;28;20109;-81
2021/12/04 03:59:47;;;;;;;4.28;3.78;;;;;;;;;;5037086;28;20045;-83
2021/12/04 04:02:14;;;;;;;3.92;3.10;;;;;;;;;;5037081;28;20024;-81
2021/12/04 04:04:40;;;;;;;5.32;3.20;;;;;;;;;;5036605;28;20041;-83
2021/12/04 04:07:07;;;;;;;4.05;2.92;;;;;;;;;;5036768;28;20034;-81
2021/12/04 04:09:33;;;;;;;6.28;4.03;;;;;;;;;;5037037;28;20102;-86
2021/12/04 04:12:00;;;;;;;6.13;3.45;;;;;;;;;;5036908;28;20093;-85
2021/12/04 04:14:26;;;;;;;4.53;3.40;;;;;;;;;;5036750;28;20021;-79
2021/12/04 04:16:54;;;;;;;7.03;3.83;;;;;;;;;;5036951;28;20036;-81
2021/12/04 04:19:20;;;;;;;6.55;4.22;;;;;;;;;;5036633;28;20033;-84
2021/12/04 04:21:46;;;;;;;5.40;3.78;;;;;;;;;;5036745;28;20022;-79
2021/12/04 04:24:13;;;;;;;5.30;3.22;;;;;;;;;;5036494;28;20479;-82
2021/12/04 04:26:40;;;;;;;5.43;3.88;;;;;;;;;;5036449;28;20025;-80
2021/12/04 04:29:07;;;;;;;5.72;3.08;;;;;;;;;;5036406;28;20475;-79
2021/12/04 04:31:34;;;;;;;4.78;3.80;;;;;;;;;;5036193;28;20043;-79
2021/12/04 04:34:09;;;;;;;5.45;3.35;;;;;;;;;;5051619;28;20538;-81
2021/12/04 05:11:21;;;;;;;4.43;2.85;;;;;;;;;;5035796;28;20105;-82
2021/12/04 05:13:48;;;;;;;5.22;4.03;;;;;;;;;;5035641;28;20464;-84
2021/12/04 05:16:15;;;;;;;8.73;4.50;;;;;;;;;;5035569;28;20108;-80
2021/12/04 05:18:50;;;;;;;4.95;4.07;;;;;;;;;;5035427;28;20079;-86
2021/12/04 05:21:16;;;;;;;4.63;3.50;;;;;;;;;;5035977;28;20025;-85
2021/12/04 05:23:47;;;;;;;5.90;3.72;;;;;;;;;;5036280;28;20029;-79
2021/12/04 05:26:18;;;;;;;5.88;4.22;;;;;;;;;;5035401;28;20029;-77
2021/12/04 05:28:44;;;;;;;5.68;4.25;;;;;;;;;;5035590;28;20029;-80
2021/12/04 05:31:11;;;;;;;5.88;4.40;;;;;;;;;;5036388;28;20041;-81
2021/12/04 05:33:37;;;;;;;5.28;4.40;;;;;;;;;;5039744;28;20097;-83
2021/12/04 05:36:04;;;;;;;6.07;4.65;;;;;;;;;;5035219;28;20018;-78
2021/12/04 05:38:30;;;;;;;7.65;4.40;;;;;;;;;;5034993;28;20108;-80
2021/12/04 05:40:57;;;;;;;6.63;4.38;;;;;;;;;;5035203;28;20088;-81
2021/12/04 05:43:24;;;;;;;9.30;4.28;;;;;;;;;;5035054;28;20033;-82
2021/12/04 05:46:15;;;;;;;9.32;4.75;;;;;;;;;;5034880;28;20064;-80
2021/12/04 05:51:34;;;;;;;;;;;;;;;;;;5034033;28;20454;-83
2021/12/04 05:54:04;;;;;;;6.63;5.18;;;;;;;;;;5034627;28;19905;-80
2021/12/04 05:56:31;;;;;;;7.78;5.22;;;;;;;;;;5034728;28;20033;-86
2021/12/04 05:58:58;;;;;;;8.68;5.30;;;;;;;;;;5034579;28;20025;-85
2021/12/04 06:01:24;;;;;;;6.63;5.20;;;;;;;;;;5034674;28;20476;-84
2021/12/04 06:03:51;;;;;;;7.90;5.28;;;;;;;;;;5034706;28;20418;-81
2021/12/04 06:06:17;;;;;;;9.52;6.63;;;;;;;;;;5034530;28;20123;-83
2021/12/04 06:08:43;;;;;;;6.97;5.05;;;;;;;;;;5034575;28;20018;-80
2021/12/04 06:11:10;;;;;;;7.35;5.38;;;;;;;;;;5034611;28;20440;-79
2021/12/04 06:13:36;;;;;;;7.88;5.57;;;;;;;;;;5034480;28;20029;-80
2021/12/04 06:16:02;;;;;;;7.30;5.78;;;;;;;;;;5049684;28;20026;-81
2021/12/04 06:18:28;;;;;;;7.05;5.50;;;;;;;;;;5034396;28;20033;-81
2021/12/04 06:23:39;;;;;;;;;;;;;;;;;;5034776;28;20049;-86
2021/12/04 06:26:06;;;;;;;8.07;4.70;;;;;;;;;;5035152;28;19908;-82
2021/12/04 06:28:32;;;;;;;7.85;5.43;;;;;;;;;;5028665;28;20026;-80
2021/12/04 06:30:59;;;;;;;10.63;7.60;;;;;;;;;;5032337;28;20112;-79
2021/12/04 06:33:26;;;;;;;8.50;5.00;;;;;;;;;;5033189;28;20396;-80
2021/12/04 06:35:52;;;;;;;10.40;7.07;;;;;;;;;;5033166;28;20025;-83
2021/12/04 06:38:18;;;;;;;9.48;6.63;;;;;;;;;;5064910;28;20057;-79
2021/12/04 06:40:45;;;;;;;9.02;6.20;;;;;;;;;;5033050;28;20056;-84
2021/12/04 06:43:12;;;;;;;7.03;5.75;;;;;;;;;;5033050;28;20037;-85
2021/12/04 06:45:41;;;;;;;8.77;5.95;;;;;;;;;;5033114;28;20031;-80
2021/12/04 06:48:18;;;;;;;6.80;5.00;;;;;;;;;;5032834;28;20041;-77
2021/12/04 06:50:50;;;;;;;9.57;6.35;;;;;;;;;;5032759;28;20116;-86
2021/12/04 06:53:26;;;;;;;7.60;5.93;;;;;;;;;;5032969;28;20025;-81
2021/12/04 06:55:54;;;;;;;9.27;5.32;;;;;;;;;;5032546;28;20112;-82
2021/12/04 06:58:21;;;;;;;9.65;6.63;;;;;;;;;;5064970;28;20083;-84
2021/12/04 07:00:48;;;;;;;8.00;6.07;;;;;;;;;;5033092;28;20075;-81
2021/12/04 07:03:14;;;;;;;9.07;6.82;;;;;;;;;;5032718;28;20029;-82
2021/12/04 07:05:40;;;;;;;9.50;6.85;;;;;;;;;;5033322;28;20025;-82
2021/12/04 07:08:06;;;;;;;7.45;5.15;;;;;;;;;;5032657;28;20171;-81
2021/12/04 07:10:33;;;;;;;9.95;5.63;;;;;;;;;;5033552;28;20030;-86
2021/12/04 07:13:01;;;;;;;9.48;6.15;;;;;;;;;;5033282;28;20100;-81
2021/12/04 07:15:29;;;;;;;8.75;6.30;;;;;;;;;;5036847;28;20079;-79
2021/12/04 07:17:56;;;;;;;13.05;8.02;;;;;;;;;;5033587;28;20465;-88
2021/12/04 07:20:22;;;;;;;12.45;8.40;;;;;;;;;;5033597;28;20056;-85
2021/12/04 07:22:48;;;;;;;10.18;6.65;;;;;;;;;;5032947;28;20091;-81
2021/12/04 07:25:14;;;;;;;11.75;8.38;;;;;;;;;;5032991;28;20063;-84
2021/12/04 07:27:40;;;;;;;14.70;10.50;;;;;;;;;;5033120;28;20029;-83
2021/12/04 07:30:07;;;;;;;12.57;8.10;;;;;;;;;;5031337;28;20026;-84
2021/12/04 07:32:33;;;;;;;13.90;9.63;;;;;;;;;;5032715;28;20045;-82
2021/12/04 07:35:00;;;;;;;13.00;10.25;;;;;;;;;;5032858;28;20037;-82
2021/12/04 07:37:26;;;;;;;12.88;9.45;;;;;;;;;;5032948;28;20044;-80
2021/12/04 07:39:52;;;;;;;13.60;9.88;;;;;;;;;;5032495;28;20053;-84
2021/12/04 07:42:18;;;;;;;19.85;13.68;;;;;;;;;;5032298;28;20087;-83
2021/12/04 07:44:44;;;;;;;11.02;8.25;;;;;;;;;;5032644;28;20080;-83
2021/12/04 07:47:11;;;;;;;24.15;15.57;;;;;;;;;;5032165;28;20025;-78
2021/12/04 07:49:38;;;;;;;21.17;14.63;;;;;;;;;;5032574;28;20025;-85
2021/12/04 07:52:06;;;;;;;26.67;16.75;;;;;;;;;;5032316;28;20487;-81
2021/12/04 07:54:32;;;;;;;25.77;16.60;;;;;;;;;;5032634;28;20060;-81
2021/12/04 07:56:58;;;;;;;27.30;16.00;;;;;;;;;;5032485;28;20033;-84
2021/12/04 07:59:26;;;;;;;21.00;14.75;;;;;;;;;;5032157;28;20468;-82
2021/12/04 08:01:52;;;;;;;18.23;12.55;;;;;;;;;;5032369;28;20076;-88
2021/12/04 08:04:19;;;;;;;20.10;15.15;;;;;;;;;;5032907;28;20017;-83
2021/12/04 08:06:45;;;;;;;14.20;10.73;;;;;;;;;;5031920;28;20373;-81
2021/12/04 08:09:11;;;;;;;13.35;10.43;;;;;;;;;;5031976;28;20403;-85
2021/12/04 08:11:37;;;;;;;14.65;12.27;;;;;;;;;;5032925;28;20083;-80
2021/12/04 08:14:03;;;;;;;15.20;10.75;;;;;;;;;;5034288;28;20032;-86
2021/12/04 08:16:32;;;;;;;11.52;8.65;;;;;;;;;;5036092;28;20033;-87
2021/12/04 08:18:58;;;;;;;11.68;8.07;;;;;;;;;;5037688;28;20018;-86
2021/12/04 08:21:24;;;;;;;10.20;7.88;;;;;;;;;;5036188;28;20051;-86
2021/12/04 08:23:50;;;;;;;11.57;7.60;;;;;;;;;;5036065;28;20391;-83
2021/12/04 08:26:17;;;;;;;10.65;8.13;;;;;;;;;;5035331;28;20084;-83
2021/12/04 08:28:43;;;;;;;9.13;6.20;;;;;;;;;;5035807;28;20026;-84
2021/12/04 08:31:09;;;;;;;19.25;12.93;;;;;;;;;;5035480;28;20045;-81
2021/12/04 08:33:35;;;;;;;12.00;10.05;;;;;;;;;;5035271;28;20033;-85
2021/12/04 08:36:03;;;;;;;13.20;8.40;;;;;;;;;;5035314;28;20033;-81
2021/12/04 08:38:30;;;;;;;10.70;7.32;;;;;;;;;;5035135;28;20803;-80
2021/12/04 08:40:56;;;;;;;11.45;8.80;;;;;;;;;;5035363;28;20053;-89
2021/12/04 08:43:23;;;;;;;16.45;10.57;;;;;;;;;;5067866;28;20026;-84
2021/12/04 08:45:50;;;;;;;19.88;13.18;;;;;;;;;;5067623;28;20025;-83
2021/12/04 08:48:16;;;;;;;12.88;9.10;;;;;;;;;;5067885;28;20028;-81
2021/12/04 08:50:43;;;;;;;9.98;7.53;;;;;;;;;;5035049;28;20072;-83
2021/12/04 08:53:09;;;;;;;14.02;10.13;;;;;;;;;;5035044;28;20052;-79
2021/12/04 08:55:37;;;;;;;10.43;8.00;;;;;;;;;;5037944;28;20037;-79
2021/12/04 08:58:05;;;;;;;14.38;10.57;;;;;;;;;;5071719;28;20487;-81
2021/12/04 09:00:34;;;;;;;16.75;11.20;;;;;;;;;;5034568;28;20021;-85
2021/12/04 09:03:00;;;;;;;13.55;8.73;;;;;;;;;;5034700;28;20026;-84
2021/12/04 09:05:28;;;;;;;19.48;11.32;;;;;;;;;;5034682;28;20477;-83
2021/12/04 09:07:54;;;;;;;14.20;10.13;;;;;;;;;;5034439;28;20574;-83
2021/12/04 09:10:21;;;;;;;12.60;9.68;;;;;;;;;;5034586;28;20084;-82
2021/12/04 09:12:48;;;;;;;13.93;9.98;;;;;;;;;;5034342;28;20056;-80
2021/12/04 09:15:16;;;;;;;11.82;7.97;;;;;;;;;;5034656;28;20087;-84
2021/12/04 09:17:42;;;;;;;10.75;7.70;;;;;;;;;;5034553;28;20044;-82
2021/12/04 09:20:11;;;;;;;10.93;8.73;;;;;;;;;;5034704;28;20436;-79
2021/12/04 09:22:37;;;;;;;11.95;10.00;;;;;;;;;;5035459;28;20025;-79
2021/12/04 09:25:05;;;;;;;12.73;9.15;;;;;;;;;;5034673;28;20095;-78
2021/12/04 10:03:09;;;;;;;10.00;6.68;;;;;;;;;;5014387;28;20037;-84
2021/12/04 10:34:49;;;;;;;15.15;10.15;;;;;;;;;;5034229;28;20120;-80
2021/12/04 10:37:24;;;;;;;14.55;9.13;;;;;;;;;;5039232;28;20022;-79
2021/12/04 10:39:51;;;;;;;10.98;8.18;;;;;;;;;;5032479;28;20045;-80
2021/12/04 10:42:21;;;;;;;7.88;5.97;;;;;;;;;;5033499;28;20033;-79
2021/12/04 10:44:51;;;;;;;14.23;9.88;;;;;;;;;;5033462;28;20080;-81
2021/12/04 10:47:26;;;;;;;16.85;11.65;;;;;;;;;;5033365;28;20060;-82
2021/12/04 10:55:38;;;;;;;7.85;6.05;;;;;;;;;;5032697;28;20438;-78
2021/12/04 11:01:13;;;;;;;9.77;7.55;;;;;;;;;;5032523;28;20464;-78
2021/12/04 11:26:14;;;;;;;17.17;12.70;;;;;;;;;;5032262;28;20029;-82
2021/12/04 11:37:11;;;;;;;11.23;7.53;;;;;;;;;;5032473;28;19912;-81
2021/12/04 11:47:56;;;;;;;8.57;6.57;;;;;;;;;;5035548;28;20575;-86
2021/12/04 11:50:28;;;;;;;7.47;5.72;;;;;;;;;;5037153;28;20519;-85
2021/12/04 11:52:55;;;;;;;7.22;5.28;;;;;;;;;;5036773;28;20025;-87
2021/12/04 11:55:23;;;;;;;12.45;9.07;;;;;;;;;;5033562;28;20598;-85
2021/12/04 11:57:50;;;;;;;10.50;8.32;;;;;;;;;;5036747;28;20061;-89
2021/12/04 12:00:27;;;;;;;11.93;9.05;;;;;;;;;;5035046;28;20057;-88
2021/12/04 12:03:05;;;;;;;12.82;8.93;;;;;;;;;;5036419;28;20021;-84
2021/12/04 12:05:32;;;;;;;40.75;28.65;;;;;;;;;;5036214;28;20112;-83
2021/12/04 12:07:58;;;;;;;16.70;11.10;;;;;;;;;;5036799;28;20025;-86
2021/12/04 12:10:26;;;;;;;18.45;11.05;;;;;;;;;;5037172;28;20029;-86
2021/12/04 12:12:53;;;;;;;14.52;8.13;;;;;;;;;;5035973;28;20036;-87
2021/12/04 12:15:32;;;;;;;7.95;6.85;;;;;;;;;;5036100;28;20411;-83
2021/12/04 12:18:09;;;;;;;37.50;22.42;;;;;;;;;;5039947;28;20491;-85
2021/12/04 12:20:43;;;;;;;18.33;12.93;;;;;;;;;;5034456;28;20048;-86
2021/12/04 12:23:12;;;;;;;11.63;9.35;;;;;;;;;;5036308;28;20025;-82
2021/12/04 12:37:26;;;;;;;14.05;9.38;;;;;;;;;;5035932;28;20138;-83
2021/12/04 12:39:52;;;;;;;11.30;8.10;;;;;;;;;;5035767;28;20079;-83
2021/12/04 12:42:35;;;;;;;12.70;9.13;;;;;;;;;;5035986;28;20522;-83
2021/12/04 12:45:20;;;;;;;9.82;7.43;;;;;;;;;;5035344;28;20025;-81
2021/12/04 12:47:57;;;;;;;13.23;8.48;;;;;;;;;;5035731;28;20025;-88
2021/12/04 12:50:44;;;;;;;8.45;6.43;;;;;;;;;;5035766;28;20025;-83
2021/12/04 12:53:16;;;;;;;11.13;8.57;;;;;;;;;;5035722;28;20029;-82
2021/12/04 12:55:43;;;;;;;17.98;12.48;;;;;;;;;;5035327;28;20091;-81
2021/12/04 12:58:31;;;;;;;14.68;10.80;;;;;;;;;;5035490;28;20022;-85
2021/12/04 13:12:13;;;;;;;14.65;10.30;;;;;;;;;;5035192;28;20090;-83
2021/12/04 13:15:00;;;;;;;9.38;6.72;;;;;;;;;;5033758;28;20487;-83
2021/12/04 13:17:29;;;;;;;13.55;9.02;;;;;;;;;;5035018;28;20053;-82
2021/12/04 13:19:56;;;;;;;12.77;8.80;;;;;;;;;;5034958;28;20033;-86
2021/12/04 13:22:24;;;;;;;9.55;6.95;;;;;;;;;;5033973;28;20030;-81
2021/12/04 13:24:51;;;;;;;10.18;6.97;;;;;;;;;;5035316;28;20029;-83
2021/12/04 13:30:03;;;;;;;7.82;5.75;;;;;;;;;;5034725;28;20516;-82
2021/12/04 13:32:32;;;;;;;;;;;;;;;;;;5035056;28;20510;-79
2021/12/04 13:35:03;;;;;;;12.63;6.88;;;;;;;;;;5034841;28;19928;-81
2021/12/04 13:37:30;;;;;;;8.45;5.90;;;;;;;;;;5035382;28;20586;-87
2021/12/04 13:39:58;;;;;;;8.13;6.00;;;;;;;;;;5034769;28;20060;-87
2021/12/04 13:42:25;;;;;;;19.08;13.27;;;;;;;;;;5034469;28;20025;-83
2021/12/04 13:44:57;;;;;;;19.58;9.85;;;;;;;;;;5035059;28;20048;-85
2021/12/04 13:47:24;;;;;;;11.35;7.32;;;;;;;;;;5033879;28;20025;-82
2021/12/04 13:50:06;;;;;;;6.80;5.35;;;;;;;;;;5033165;28;20032;-89
2021/12/04 13:52:34;;;;;;;11.52;6.70;;;;;;;;;;5034328;28;20063;-83
2021/12/04 13:55:05;;;;;;;11.52;8.05;;;;;;;;;;5037508;28;20029;-79
2021/12/04 13:57:31;;;;;;;11.18;7.72;;;;;;;;;;5041763;28;20025;-81
2021/12/04 13:59:58;;;;;;;10.90;8.20;;;;;;;;;;5034680;28;20114;-82
2021/12/04 14:02:29;;;;;;;24.58;12.63;;;;;;;;;;5034386;28;20025;-83
2021/12/04 14:04:58;;;;;;;10.95;7.45;;;;;;;;;;5034301;28;20029;-80
2021/12/04 14:07:25;;;;;;;11.73;8.10;;;;;;;;;;5034150;28;20123;-82
2021/12/04 14:09:51;;;;;;;7.55;5.97;;;;;;;;;;5034243;28;20025;-81
2021/12/04 14:12:17;;;;;;;13.35;9.27;;;;;;;;;;5031666;28;20565;-80
2021/12/04 14:14:43;;;;;;;6.88;5.80;;;;;;;;;;5033188;28;20052;-84
2021/12/04 14:17:14;;;;;;;9.65;6.65;;;;;;;;;;5033017;28;20049;-79
2021/12/04 14:19:41;;;;;;;9.32;6.60;;;;;;;;;;5034002;28;20116;-83
2021/12/04 14:22:13;;;;;;;11.27;7.43;;;;;;;;;;5033383;28;20048;-81
2021/12/04 14:24:43;;;;;;;11.13;7.70;;;;;;;;;;5034260;28;20030;-84
2021/12/04 14:27:18;;;;;;;11.40;9.10;;;;;;;;;;5034394;28;20407;-86
2021/12/04 14:29:47;;;;;;;12.27;8.27;;;;;;;;;;5031167;28;20121;-81
2021/12/04 14:32:16;;;;;;;11.57;9.23;;;;;;;;;;5031895;28;20047;-84
2021/12/04 14:34:43;;;;;;;12.70;9.25;;;;;;;;;;5034269;28;20037;-85
2021/12/04 14:37:14;;;;;;;12.63;9.98;;;;;;;;;;5032808;28;20037;-80
2021/12/04 14:39:42;;;;;;;12.23;8.77;;;;;;;;;;5034503;28;20488;-84
2021/12/04 14:42:27;;;;;;;9.15;7.60;;;;;;;;;;5034371;28;20025;-82
2021/12/04 14:44:55;;;;;;;10.35;7.65;;;;;;;;;;5033907;28;20080;-85
2021/12/04 14:47:21;;;;;;;10.18;7.47;;;;;;;;;;5033870;28;20025;-80
2021/12/04 14:49:49;;;;;;;11.20;8.27;;;;;;;;;;5033022;28;20485;-79
2021/12/04 14:52:23;;;;;;;18.10;11.70;;;;;;;;;;5032371;28;20037;-78
2021/12/04 14:54:50;;;;;;;23.25;16.70;;;;;;;;;;5033695;28;20025;-82
2021/12/04 14:57:20;;;;;;;24.85;17.35;;;;;;;;;;5034664;28;20021;-80
2021/12/04 14:59:47;;;;;;;22.63;15.73;;;;;;;;;;5034477;28;20034;-83
2021/12/04 15:02:15;;;;;;;24.00;17.63;;;;;;;;;;5033816;28;20033;-85
2021/12/04 15:04:41;;;;;;;29.92;21.55;;;;;;;;;;5033706;28;20021;-82
2021/12/04 15:07:17;;;;;;;40.85;27.60;;;;;;;;;;5033835;28;20033;-82
2021/12/04 15:09:43;;;;;;;28.10;18.13;;;;;;;;;;5032302;28;20029;-84
2021/12/04 15:12:09;;;;;;;20.30;12.95;;;;;;;;;;5033617;28;20033;-81
2021/12/04 15:14:35;;;;;;;21.05;12.50;;;;;;;;;;5032161;28;20503;-82
2021/12/04 15:17:07;;;;;;;14.27;11.35;;;;;;;;;;5032171;28;20391;-82
2021/12/04 15:19:53;;;;;;;13.07;9.40;;;;;;;;;;5032097;28;20034;-84
2021/12/04 15:22:32;;;;;;;14.73;10.18;;;;;;;;;;5065183;28;20037;-82
2021/12/04 15:24:58;;;;;;;14.32;10.25;;;;;;;;;;5033416;28;20025;-81
2021/12/04 15:27:27;;;;;;;11.98;8.07;;;;;;;;;;5065524;28;20032;-81
2021/12/04 15:29:54;;;;;;;16.45;10.73;;;;;;;;;;5065780;28;20039;-80
2021/12/04 15:32:22;;;;;;;13.40;10.50;;;;;;;;;;5033332;28;20388;-80
2021/12/04 15:34:53;;;;;;;19.00;13.45;;;;;;;;;;5067449;28;20030;-79
2021/12/04 15:37:54;;;;;;;21.75;14.30;;;;;;;;;;5033782;28;20029;-82
2021/12/04 15:40:28;;;;;;;23.00;16.45;;;;;;;;;;5033408;28;20056;-83
2021/12/04 15:43:10;;;;;;;19.70;14.68;;;;;;;;;;5033595;28;20021;-83
2021/12/04 15:53:34;;;;;;;44.50;34.22;;;;;;;;;;5033074;28;20095;-80
2021/12/04 15:56:01;;;;;;;30.70;26.58;;;;;;;;;;5032996;28;20100;-80
2021/12/04 15:58:30;;;;;;;25.38;19.35;;;;;;;;;;5032762;28;20025;-80
2021/12/04 16:01:03;;;;;;;23.48;16.35;;;;;;;;;;5032881;28;20052;-79
2021/12/04 16:03:29;;;;;;;24.60;17.60;;;;;;;;;;5032547;28;20064;-78
2021/12/04 16:05:57;;;;;;;24.20;16.30;;;;;;;;;;5065030;28;20053;-79
2021/12/04 16:08:24;;;;;;;19.20;15.13;;;;;;;;;;5033448;28;20448;-80
2021/12/04 16:10:51;;;;;;;16.88;12.10;;;;;;;;;;5032740;28;20028;-81
2021/12/04 16:13:30;;;;;;;20.27;14.88;;;;;;;;;;5032833;28;20499;-81
2021/12/04 16:15:58;;;;;;;23.58;15.13;;;;;;;;;;5032783;28;20034;-81
2021/12/04 16:18:29;;;;;;;29.77;21.45;;;;;;;;;;5033313;28;20503;-79
2021/12/04 16:20:56;;;;;;;41.70;30.08;;;;;;;;;;5031824;28;20029;-79
2021/12/04 16:23:22;;;;;;;39.15;26.48;;;;;;;;;;5032474;28;20061;-81
2021/12/04 16:25:49;;;;;;;34.78;25.17;;;;;;;;;;5032791;28;20029;-81
2021/12/04 16:36:05;;;;;;;106.03;79.88;;;;;;;;;;5015640;28;20108;-80
2021/12/04 16:38:31;;;;;;;102.30;69.35;;;;;;;;;;5015025;28;20404;-81
2021/12/04 16:41:01;;;;;;;86.28;64.45;;;;;;;;;;5016604;28;20022;-80
2021/12/04 16:46:19;;;;;;;57.22;41.20;;;;;;;;;;5016502;28;20045;-81
2021/12/04 16:48:52;;;;;;;52.60;41.35;;;;;;;;;;5017037;28;20054;-78
2021/12/04 16:56:51;;;;;;;55.83;45.13;;;;;;;;;;5016504;28;20044;-81
2021/12/04 16:59:20;;;;;;;53.35;40.60;;;;;;;;;;5016087;28;20370;-79
2021/12/04 17:01:49;;;;;;;80.88;59.85;;;;;;;;;;5016175;28;20469;-80
2021/12/04 17:04:15;;;;;;;73.60;56.67;;;;;;;;;;5016067;28;20104;-80
2021/12/04 17:06:43;;;;;;;69.03;52.88;;;;;;;;;;5016158;28;20037;-81
2021/12/04 17:09:10;;;;;;;80.38;57.65;;;;;;;;;;5015759;28;20029;-78
2021/12/04 17:11:36;;;;;;;138.40;93.93;;;;;;;;;;5014585;28;20037;-79
2021/12/04 17:14:03;;;;;;;128.32;92.80;;;;;;;;;;5018226;28;20029;-81
2021/12/04 17:16:29;;;;;;;127.88;89.32;;;;;;;;;;5015646;28;20499;-79
2021/12/04 17:19:01;;;;;;;123.78;86.28;;;;;;;;;;5015704;28;20026;-80
2021/12/04 17:21:30;;;;;;;116.07;84.45;;;;;;;;;;5015730;28;20145;-80
2021/12/04 17:23:57;;;;;;;115.32;82.50;;;;;;;;;;5014272;28;20026;-79
2021/12/04 17:26:23;;;;;;;117.47;88.30;;;;;;;;;;5014313;28;20057;-79
2021/12/04 17:28:50;;;;;;;126.38;92.93;;;;;;;;;;5015494;28;20528;-79
2021/12/04 17:31:17;;;;;;;116.45;83.65;;;;;;;;;;5014062;28;20115;-82
2021/12/04 17:34:02;;;;;;;109.45;76.70;;;;;;;;;;5015687;28;20041;-81
2021/12/04 17:36:29;;;;;;;113.28;79.15;;;;;;;;;;5015223;28;20037;-81
2021/12/04 17:38:56;;;;;;;113.88;82.78;;;;;;;;;;5015115;28;20060;-82
2021/12/04 17:41:23;;;;;;;105.68;77.70;;;;;;;;;;5014055;28;20032;-82
2021/12/04 17:43:51;;;;;;;99.75;70.97;;;;;;;;;;5015149;28;20396;-79
2021/12/04 17:46:21;;;;;;;73.05;48.97;;;;;;;;;;5015022;28;20092;-81
2021/12/04 17:48:48;;;;;;;74.90;54.40;;;;;;;;;;5015285;28;20022;-80
2021/12/04 17:51:15;;;;;;;74.22;53.47;;;;;;;;;;5014894;28;20041;-81
2021/12/04 17:53:41;;;;;;;76.15;53.28;;;;;;;;;;5013816;28;20211;-82
2021/12/04 17:56:08;;;;;;;81.15;54.50;;;;;;;;;;5014866;28;20022;-77
2021/12/04 17:58:35;;;;;;;79.95;55.97;;;;;;;;;;5014989;28;20022;-80
2021/12/04 18:01:04;;;;;;;92.20;64.38;;;;;;;;;;5014573;28;20485;-82
2021/12/04 18:03:31;;;;;;;98.65;66.32;;;;;;;;;;5014937;28;20101;-79
2021/12/04 18:05:59;;;;;;;102.30;69.97;;;;;;;;;;5014865;28;20025;-80
2021/12/04 18:08:25;;;;;;;117.10;84.40;;;;;;;;;;5014759;28;20025;-78
2021/12/04 18:10:53;;;;;;;119.88;78.28;;;;;;;;;;5014651;28;20427;-80
2021/12/04 18:13:21;;;;;;;94.97;62.65;;;;;;;;;;5014731;28;20042;-80
2021/12/04 18:15:51;;;;;;;83.40;59.20;;;;;;;;;;5014626;28;20420;-82
2021/12/04 18:18:19;;;;;;;83.82;63.50;;;;;;;;;;5014638;28;20030;-79
2021/12/04 18:20:46;;;;;;;93.32;67.15;;;;;;;;;;5014554;28;20117;-78
2021/12/04 18:23:13;;;;;;;83.97;60.08;;;;;;;;;;5014567;28;20022;-79
2021/12/04 18:25:40;;;;;;;71.47;47.63;;;;;;;;;;5014479;28;20034;-80